sensor_id;sensor_type;location;lat;lon;timestamp;P1;durP1;ratioP1;P2;durP2;ratioP2
11829;SDS011;5972;42.134;24.718;2023-01-16T00:02:03;24.13;;;15.60;;
11829;SDS011;5972;42.134;24.718;2023-01-16T00:04:29;22.30;;;14.47;;
11829;SDS011;5972;42.134;24.718;2023-01-16T00:06:59;22.23;;;14.63;;
11829;SDS011;5972;42.134;24.718;2023-01-16T00:09:27;21.50;;;14.73;;
11829;SDS011;5972;42.134;24.718;2023-01-16T00:11:55;21.43;;;13.67;;
11829;SDS011;5972;42.134;24.718;2023-01-16T00:14:22;25.27;;;13.97;;
11829;SDS011;5972;42.134;24.718;2023-01-16T00:16:48;23.83;;;13.43;;
11829;SDS011;5972;42.134;24.718;2023-01-16T00:19:17;23.10;;;14.67;;
11829;SDS011;5972;42.134;24.718;2023-01-16T00:21:44;21.67;;;13.93;;
11829;SDS011;5972;42.134;24.718;2023-01-16T00:24:13;24.20;;;16.30;;
11829;SDS011;5972;42.134;24.718;2023-01-16T00:26:40;24.00;;;14.13;;
11829;SDS011;5972;42.134;24.718;2023-01-16T00:29:08;21.57;;;13.43;;
11829;SDS011;5972;42.134;24.718;2023-01-16T00:31:35;26.17;;;14.83;;
11829;SDS011;5972;42.134;24.718;2023-01-16T00:34:01;22.17;;;12.87;;
11829;SDS011;5972;42.134;24.718;2023-01-16T00:36:28;20.53;;;13.43;;
11829;SDS011;5972;42.134;24.718;2023-01-16T00:38:55;20.10;;;13.63;;
11829;SDS011;5972;42.134;24.718;2023-01-16T00:41:22;21.67;;;13.33;;
11829;SDS011;5972;42.134;24.718;2023-01-16T00:43:48;21.47;;;13.00;;
11829;SDS011;5972;42.134;24.718;2023-01-16T00:46:17;24.17;;;12.80;;
11829;SDS011;5972;42.134;24.718;2023-01-16T00:48:44;18.17;;;12.53;;
11829;SDS011;5972;42.134;24.718;2023-01-16T00:51:10;19.77;;;11.97;;
11829;SDS011;5972;42.134;24.718;2023-01-16T00:53:37;16.03;;;11.30;;
11829;SDS011;5972;42.134;24.718;2023-01-16T00:56:04;17.50;;;11.87;;
11829;SDS011;5972;42.134;24.718;2023-01-16T00:58:32;16.97;;;11.47;;
11829;SDS011;5972;42.134;24.718;2023-01-16T01:00:59;17.67;;;12.33;;
11829;SDS011;5972;42.134;24.718;2023-01-16T01:03:28;19.67;;;12.97;;
11829;SDS011;5972;42.134;24.718;2023-01-16T01:05:55;20.90;;;12.87;;
11829;SDS011;5972;42.134;24.718;2023-01-16T01:08:22;18.70;;;12.13;;
11829;SDS011;5972;42.134;24.718;2023-01-16T01:10:50;18.20;;;12.57;;
11829;SDS011;5972;42.134;24.718;2023-01-16T01:13:17;21.80;;;12.97;;
11829;SDS011;5972;42.134;24.718;2023-01-16T01:15:44;19.07;;;12.97;;
11829;SDS011;5972;42.134;24.718;2023-01-16T01:18:11;21.10;;;13.40;;
11829;SDS011;5972;42.134;24.718;2023-01-16T01:20:39;17.97;;;12.13;;
11829;SDS011;5972;42.134;24.718;2023-01-16T01:23:06;19.77;;;13.07;;
11829;SDS011;5972;42.134;24.718;2023-01-16T01:25:32;17.80;;;13.23;;
11829;SDS011;5972;42.134;24.718;2023-01-16T01:27:59;18.47;;;12.67;;
11829;SDS011;5972;42.134;24.718;2023-01-16T01:30:29;20.20;;;13.93;;
11829;SDS011;5972;42.134;24.718;2023-01-16T01:32:57;19.37;;;13.43;;
11829;SDS011;5972;42.134;24.718;2023-01-16T01:35:24;25.50;;;14.53;;
11829;SDS011;5972;42.134;24.718;2023-01-16T01:37:52;23.07;;;14.17;;
11829;SDS011;5972;42.134;24.718;2023-01-16T01:40:19;21.90;;;14.43;;
11829;SDS011;5972;42.134;24.718;2023-01-16T01:42:46;20.00;;;13.70;;
11829;SDS011;5972;42.134;24.718;2023-01-16T01:45:19;20.27;;;13.97;;
11829;SDS011;5972;42.134;24.718;2023-01-16T01:47:49;20.00;;;15.07;;
11829;SDS011;5972;42.134;24.718;2023-01-16T01:50:32;31.40;;;15.80;;
11829;SDS011;5972;42.134;24.718;2023-01-16T01:53:20;23.07;;;15.80;;
11829;SDS011;5972;42.134;24.718;2023-01-16T01:55:52;21.93;;;15.50;;
11829;SDS011;5972;42.134;24.718;2023-01-16T01:58:21;25.00;;;15.47;;
11829;SDS011;5972;42.134;24.718;2023-01-16T02:00:53;24.30;;;14.43;;
11829;SDS011;5972;42.134;24.718;2023-01-16T02:03:23;20.73;;;14.50;;
11829;SDS011;5972;42.134;24.718;2023-01-16T02:05:55;32.33;;;18.90;;
11829;SDS011;5972;42.134;24.718;2023-01-16T02:08:27;26.70;;;16.47;;
11829;SDS011;5972;42.134;24.718;2023-01-16T02:10:59;24.70;;;15.87;;
11829;SDS011;5972;42.134;24.718;2023-01-16T02:13:29;21.37;;;14.30;;
11829;SDS011;5972;42.134;24.718;2023-01-16T02:15:56;19.73;;;13.70;;
11829;SDS011;5972;42.134;24.718;2023-01-16T02:18:55;20.70;;;14.67;;
11829;SDS011;5972;42.134;24.718;2023-01-16T02:21:56;19.97;;;13.73;;
11829;SDS011;5972;42.134;24.718;2023-01-16T02:27:39;20.33;;;13.33;;
11829;SDS011;5972;42.134;24.718;2023-01-16T02:30:30;17.10;;;12.83;;
11829;SDS011;5972;42.134;24.718;2023-01-16T02:33:14;23.50;;;15.17;;
11829;SDS011;5972;42.134;24.718;2023-01-16T02:35:55;27.83;;;16.87;;
11829;SDS011;5972;42.134;24.718;2023-01-16T02:38:31;24.93;;;15.20;;
11829;SDS011;5972;42.134;24.718;2023-01-16T02:41:10;23.80;;;14.97;;
11829;SDS011;5972;42.134;24.718;2023-01-16T02:43:47;21.13;;;13.70;;
11829;SDS011;5972;42.134;24.718;2023-01-16T02:46:24;21.80;;;13.97;;
11829;SDS011;5972;42.134;24.718;2023-01-16T02:48:59;20.60;;;14.07;;
11829;SDS011;5972;42.134;24.718;2023-01-16T02:51:34;21.90;;;14.43;;
11829;SDS011;5972;42.134;24.718;2023-01-16T02:54:10;20.50;;;14.50;;
11829;SDS011;5972;42.134;24.718;2023-01-16T02:56:41;19.97;;;13.40;;
11829;SDS011;5972;42.134;24.718;2023-01-16T02:59:11;20.13;;;14.13;;
11829;SDS011;5972;42.134;24.718;2023-01-16T03:01:43;24.13;;;14.73;;
11829;SDS011;5972;42.134;24.718;2023-01-16T03:07:09;20.87;;;14.77;;
11829;SDS011;5972;42.134;24.718;2023-01-16T03:12:58;29.87;;;17.40;;
11829;SDS011;5972;42.134;24.718;2023-01-16T03:15:39;25.13;;;16.80;;
11829;SDS011;5972;42.134;24.718;2023-01-16T03:18:18;22.03;;;15.90;;
11829;SDS011;5972;42.134;24.718;2023-01-16T03:20:56;23.50;;;15.53;;
11829;SDS011;5972;42.134;24.718;2023-01-16T03:23:32;21.47;;;15.60;;
11829;SDS011;5972;42.134;24.718;2023-01-16T03:26:07;22.83;;;15.77;;
11829;SDS011;5972;42.134;24.718;2023-01-16T03:28:41;22.50;;;16.00;;
11829;SDS011;5972;42.134;24.718;2023-01-16T03:31:19;21.57;;;14.60;;
11829;SDS011;5972;42.134;24.718;2023-01-16T03:33:55;20.33;;;14.80;;
11829;SDS011;5972;42.134;24.718;2023-01-16T03:36:34;24.07;;;15.07;;
11829;SDS011;5972;42.134;24.718;2023-01-16T03:39:07;23.30;;;15.17;;
11829;SDS011;5972;42.134;24.718;2023-01-16T03:41:37;25.87;;;16.27;;
11829;SDS011;5972;42.134;24.718;2023-01-16T03:44:08;26.70;;;16.27;;
11829;SDS011;5972;42.134;24.718;2023-01-16T03:46:40;24.90;;;16.07;;
11829;SDS011;5972;42.134;24.718;2023-01-16T03:49:15;22.47;;;16.03;;
11829;SDS011;5972;42.134;24.718;2023-01-16T03:51:46;23.67;;;15.97;;
11829;SDS011;5972;42.134;24.718;2023-01-16T03:54:19;22.17;;;15.60;;
11829;SDS011;5972;42.134;24.718;2023-01-16T03:56:55;23.70;;;15.53;;
11829;SDS011;5972;42.134;24.718;2023-01-16T03:59:28;27.50;;;15.90;;
11829;SDS011;5972;42.134;24.718;2023-01-16T04:01:56;23.57;;;15.97;;
11829;SDS011;5972;42.134;24.718;2023-01-16T04:04:29;26.23;;;16.73;;
11829;SDS011;5972;42.134;24.718;2023-01-16T04:07:03;31.33;;;16.30;;
11829;SDS011;5972;42.134;24.718;2023-01-16T04:09:35;25.80;;;16.73;;
11829;SDS011;5972;42.134;24.718;2023-01-16T04:12:04;23.73;;;16.10;;
11829;SDS011;5972;42.134;24.718;2023-01-16T04:14:33;29.17;;;16.97;;
11829;SDS011;5972;42.134;24.718;2023-01-16T04:17:04;27.17;;;17.50;;
11829;SDS011;5972;42.134;24.718;2023-01-16T04:19:34;29.63;;;17.17;;
11829;SDS011;5972;42.134;24.718;2023-01-16T04:22:04;27.70;;;16.60;;
11829;SDS011;5972;42.134;24.718;2023-01-16T04:24:31;28.33;;;16.50;;
11829;SDS011;5972;42.134;24.718;2023-01-16T04:26:58;26.83;;;16.43;;
11829;SDS011;5972;42.134;24.718;2023-01-16T04:29:25;26.60;;;16.63;;
11829;SDS011;5972;42.134;24.718;2023-01-16T04:31:52;28.93;;;17.73;;
11829;SDS011;5972;42.134;24.718;2023-01-16T04:34:19;29.20;;;17.40;;
11829;SDS011;5972;42.134;24.718;2023-01-16T04:36:47;32.03;;;17.87;;
11829;SDS011;5972;42.134;24.718;2023-01-16T04:39:14;35.17;;;17.70;;
11829;SDS011;5972;42.134;24.718;2023-01-16T04:41:40;27.77;;;17.37;;
11829;SDS011;5972;42.134;24.718;2023-01-16T04:44:09;27.97;;;17.53;;
11829;SDS011;5972;42.134;24.718;2023-01-16T04:46:37;27.73;;;17.57;;
11829;SDS011;5972;42.134;24.718;2023-01-16T04:49:04;33.57;;;20.30;;
11829;SDS011;5972;42.134;24.718;2023-01-16T04:51:32;28.00;;;18.53;;
11829;SDS011;5972;42.134;24.718;2023-01-16T04:54:00;27.50;;;18.43;;
11829;SDS011;5972;42.134;24.718;2023-01-16T04:56:27;29.63;;;18.10;;
11829;SDS011;5972;42.134;24.718;2023-01-16T04:58:54;31.80;;;18.07;;
11829;SDS011;5972;42.134;24.718;2023-01-16T05:01:22;29.03;;;19.37;;
11829;SDS011;5972;42.134;24.718;2023-01-16T05:03:49;29.77;;;18.10;;
11829;SDS011;5972;42.134;24.718;2023-01-16T05:06:16;27.70;;;18.20;;
11829;SDS011;5972;42.134;24.718;2023-01-16T05:08:43;25.80;;;17.53;;
11829;SDS011;5972;42.134;24.718;2023-01-16T05:11:11;25.77;;;18.47;;
11829;SDS011;5972;42.134;24.718;2023-01-16T05:13:38;27.03;;;17.70;;
11829;SDS011;5972;42.134;24.718;2023-01-16T05:16:05;28.50;;;18.17;;
11829;SDS011;5972;42.134;24.718;2023-01-16T05:18:32;26.13;;;17.13;;
11829;SDS011;5972;42.134;24.718;2023-01-16T05:20:59;29.37;;;18.17;;
11829;SDS011;5972;42.134;24.718;2023-01-16T05:23:26;25.93;;;16.83;;
11829;SDS011;5972;42.134;24.718;2023-01-16T05:25:54;27.33;;;17.30;;
11829;SDS011;5972;42.134;24.718;2023-01-16T05:28:22;25.67;;;17.47;;
11829;SDS011;5972;42.134;24.718;2023-01-16T05:30:49;26.97;;;17.10;;
11829;SDS011;5972;42.134;24.718;2023-01-16T05:33:16;29.20;;;18.57;;
11829;SDS011;5972;42.134;24.718;2023-01-16T05:35:44;27.87;;;17.73;;
11829;SDS011;5972;42.134;24.718;2023-01-16T05:38:10;28.83;;;18.23;;
11829;SDS011;5972;42.134;24.718;2023-01-16T05:40:37;28.13;;;17.77;;
11829;SDS011;5972;42.134;24.718;2023-01-16T05:43:04;28.77;;;18.53;;
11829;SDS011;5972;42.134;24.718;2023-01-16T05:45:32;29.77;;;18.70;;
11829;SDS011;5972;42.134;24.718;2023-01-16T05:48:01;29.90;;;19.40;;
11829;SDS011;5972;42.134;24.718;2023-01-16T05:50:28;36.17;;;20.53;;
11829;SDS011;5972;42.134;24.718;2023-01-16T05:52:55;31.97;;;20.07;;
11829;SDS011;5972;42.134;24.718;2023-01-16T05:55:23;31.30;;;20.93;;
11829;SDS011;5972;42.134;24.718;2023-01-16T05:57:50;32.97;;;21.07;;
11829;SDS011;5972;42.134;24.718;2023-01-16T06:00:18;34.87;;;21.77;;
11829;SDS011;5972;42.134;24.718;2023-01-16T06:02:46;35.00;;;22.27;;
11829;SDS011;5972;42.134;24.718;2023-01-16T06:05:13;42.03;;;22.63;;
11829;SDS011;5972;42.134;24.718;2023-01-16T06:07:41;36.30;;;22.43;;
11829;SDS011;5972;42.134;24.718;2023-01-16T06:10:08;42.50;;;21.57;;
11829;SDS011;5972;42.134;24.718;2023-01-16T06:12:36;37.27;;;21.73;;
11829;SDS011;5972;42.134;24.718;2023-01-16T06:15:03;29.70;;;20.73;;
11829;SDS011;5972;42.134;24.718;2023-01-16T06:17:30;38.63;;;20.97;;
11829;SDS011;5972;42.134;24.718;2023-01-16T06:19:58;28.20;;;18.40;;
11829;SDS011;5972;42.134;24.718;2023-01-16T06:22:25;31.97;;;20.53;;
11829;SDS011;5972;42.134;24.718;2023-01-16T06:24:52;39.37;;;22.57;;
11829;SDS011;5972;42.134;24.718;2023-01-16T06:27:19;36.70;;;23.43;;
11829;SDS011;5972;42.134;24.718;2023-01-16T06:29:46;40.20;;;22.70;;
11829;SDS011;5972;42.134;24.718;2023-01-16T06:32:13;38.57;;;21.67;;
11829;SDS011;5972;42.134;24.718;2023-01-16T06:34:41;32.73;;;20.53;;
11829;SDS011;5972;42.134;24.718;2023-01-16T06:37:09;35.30;;;22.30;;
11829;SDS011;5972;42.134;24.718;2023-01-16T06:39:36;31.97;;;21.47;;
11829;SDS011;5972;42.134;24.718;2023-01-16T06:42:03;33.57;;;20.80;;
11829;SDS011;5972;42.134;24.718;2023-01-16T06:44:30;31.03;;;19.03;;
11829;SDS011;5972;42.134;24.718;2023-01-16T06:46:57;29.60;;;17.77;;
11829;SDS011;5972;42.134;24.718;2023-01-16T06:49:24;28.40;;;17.93;;
11829;SDS011;5972;42.134;24.718;2023-01-16T06:52:00;28.03;;;16.07;;
11829;SDS011;5972;42.134;24.718;2023-01-16T06:54:28;27.63;;;17.40;;
11829;SDS011;5972;42.134;24.718;2023-01-16T06:56:57;25.07;;;16.70;;
11829;SDS011;5972;42.134;24.718;2023-01-16T06:59:24;24.47;;;16.87;;
11829;SDS011;5972;42.134;24.718;2023-01-16T07:01:50;22.67;;;15.57;;
11829;SDS011;5972;42.134;24.718;2023-01-16T07:04:17;22.17;;;16.20;;
11829;SDS011;5972;42.134;24.718;2023-01-16T07:06:46;25.83;;;16.63;;
11829;SDS011;5972;42.134;24.718;2023-01-16T07:09:14;22.43;;;15.73;;
11829;SDS011;5972;42.134;24.718;2023-01-16T07:11:43;22.83;;;16.47;;
11829;SDS011;5972;42.134;24.718;2023-01-16T07:14:09;23.03;;;16.37;;
11829;SDS011;5972;42.134;24.718;2023-01-16T07:16:54;28.73;;;18.60;;
11829;SDS011;5972;42.134;24.718;2023-01-16T07:19:37;25.07;;;17.20;;
11829;SDS011;5972;42.134;24.718;2023-01-16T07:22:21;25.57;;;16.93;;
11829;SDS011;5972;42.134;24.718;2023-01-16T07:25:05;23.50;;;15.83;;
11829;SDS011;5972;42.134;24.718;2023-01-16T07:27:37;21.13;;;14.57;;
11829;SDS011;5972;42.134;24.718;2023-01-16T07:30:05;24.17;;;15.90;;
11829;SDS011;5972;42.134;24.718;2023-01-16T07:32:33;21.00;;;14.83;;
11829;SDS011;5972;42.134;24.718;2023-01-16T07:35:00;22.17;;;15.90;;
11829;SDS011;5972;42.134;24.718;2023-01-16T07:37:27;19.90;;;14.77;;
11829;SDS011;5972;42.134;24.718;2023-01-16T07:39:54;22.80;;;15.03;;
11829;SDS011;5972;42.134;24.718;2023-01-16T07:42:21;37.10;;;21.17;;
11829;SDS011;5972;42.134;24.718;2023-01-16T07:44:49;27.77;;;17.37;;
11829;SDS011;5972;42.134;24.718;2023-01-16T07:47:16;24.83;;;15.47;;
11829;SDS011;5972;42.134;24.718;2023-01-16T07:49:43;28.33;;;17.77;;
11829;SDS011;5972;42.134;24.718;2023-01-16T07:52:09;28.33;;;18.57;;
11829;SDS011;5972;42.134;24.718;2023-01-16T07:54:36;22.47;;;14.27;;
11829;SDS011;5972;42.134;24.718;2023-01-16T07:57:05;27.57;;;17.13;;
11829;SDS011;5972;42.134;24.718;2023-01-16T07:59:34;22.53;;;15.13;;
11829;SDS011;5972;42.134;24.718;2023-01-16T08:02:02;21.90;;;14.73;;
11829;SDS011;5972;42.134;24.718;2023-01-16T08:04:29;24.10;;;15.53;;
11829;SDS011;5972;42.134;24.718;2023-01-16T08:06:55;26.53;;;17.73;;
11829;SDS011;5972;42.134;24.718;2023-01-16T08:09:22;25.40;;;16.37;;
11829;SDS011;5972;42.134;24.718;2023-01-16T08:11:49;28.17;;;16.00;;
11829;SDS011;5972;42.134;24.718;2023-01-16T08:14:16;30.60;;;16.57;;
11829;SDS011;5972;42.134;24.718;2023-01-16T08:16:45;25.37;;;16.60;;
11829;SDS011;5972;42.134;24.718;2023-01-16T08:19:13;25.13;;;16.93;;
11829;SDS011;5972;42.134;24.718;2023-01-16T08:21:41;30.77;;;17.00;;
11829;SDS011;5972;42.134;24.718;2023-01-16T08:24:09;26.13;;;16.67;;
11829;SDS011;5972;42.134;24.718;2023-01-16T08:26:38;23.37;;;15.27;;
11829;SDS011;5972;42.134;24.718;2023-01-16T08:29:07;23.53;;;15.20;;
11829;SDS011;5972;42.134;24.718;2023-01-16T08:31:35;21.23;;;14.10;;
11829;SDS011;5972;42.134;24.718;2023-01-16T08:34:02;23.07;;;14.53;;
11829;SDS011;5972;42.134;24.718;2023-01-16T08:36:30;23.87;;;15.30;;
11829;SDS011;5972;42.134;24.718;2023-01-16T08:38:57;24.90;;;15.97;;
11829;SDS011;5972;42.134;24.718;2023-01-16T08:41:24;26.33;;;16.27;;
11829;SDS011;5972;42.134;24.718;2023-01-16T08:44:09;25.03;;;16.33;;
11829;SDS011;5972;42.134;24.718;2023-01-16T08:46:57;23.00;;;14.53;;
11829;SDS011;5972;42.134;24.718;2023-01-16T08:49:43;23.67;;;14.70;;
11829;SDS011;5972;42.134;24.718;2023-01-16T08:52:29;26.73;;;17.07;;
11829;SDS011;5972;42.134;24.718;2023-01-16T08:54:57;22.60;;;13.73;;
11829;SDS011;5972;42.134;24.718;2023-01-16T08:57:24;25.83;;;16.00;;
11829;SDS011;5972;42.134;24.718;2023-01-16T08:59:52;21.07;;;15.00;;
11829;SDS011;5972;42.134;24.718;2023-01-16T09:02:19;23.47;;;16.10;;
11829;SDS011;5972;42.134;24.718;2023-01-16T09:04:46;24.53;;;16.33;;
11829;SDS011;5972;42.134;24.718;2023-01-16T09:07:16;21.27;;;15.87;;
11829;SDS011;5972;42.134;24.718;2023-01-16T09:09:44;25.67;;;17.57;;
11829;SDS011;5972;42.134;24.718;2023-01-16T09:12:11;21.83;;;15.17;;
11829;SDS011;5972;42.134;24.718;2023-01-16T09:14:56;22.30;;;15.27;;
11829;SDS011;5972;42.134;24.718;2023-01-16T09:17:25;23.13;;;15.17;;
11829;SDS011;5972;42.134;24.718;2023-01-16T09:19:52;26.23;;;15.77;;
11829;SDS011;5972;42.134;24.718;2023-01-16T09:22:20;25.67;;;14.90;;
11829;SDS011;5972;42.134;24.718;2023-01-16T09:24:50;25.57;;;15.00;;
11829;SDS011;5972;42.134;24.718;2023-01-16T09:27:17;24.93;;;15.47;;
11829;SDS011;5972;42.134;24.718;2023-01-16T09:29:45;24.37;;;16.43;;
11829;SDS011;5972;42.134;24.718;2023-01-16T09:32:12;26.87;;;17.03;;
11829;SDS011;5972;42.134;24.718;2023-01-16T09:34:38;26.07;;;17.60;;
11829;SDS011;5972;42.134;24.718;2023-01-16T09:37:06;26.83;;;16.77;;
11829;SDS011;5972;42.134;24.718;2023-01-16T09:39:33;24.57;;;15.83;;
11829;SDS011;5972;42.134;24.718;2023-01-16T09:45:35;24.87;;;16.63;;
11829;SDS011;5972;42.134;24.718;2023-01-16T09:48:09;22.40;;;14.97;;
11829;SDS011;5972;42.134;24.718;2023-01-16T09:50:42;24.40;;;15.93;;
11829;SDS011;5972;42.134;24.718;2023-01-16T09:53:18;25.10;;;16.40;;
11829;SDS011;5972;42.134;24.718;2023-01-16T09:56:07;27.37;;;16.80;;
11829;SDS011;5972;42.134;24.718;2023-01-16T09:58:59;22.97;;;15.43;;
11829;SDS011;5972;42.134;24.718;2023-01-16T10:01:34;24.97;;;14.63;;
11829;SDS011;5972;42.134;24.718;2023-01-16T10:04:09;25.27;;;16.53;;
11829;SDS011;5972;42.134;24.718;2023-01-16T10:06:47;26.53;;;17.23;;
11829;SDS011;5972;42.134;24.718;2023-01-16T10:09:23;24.20;;;15.70;;
11829;SDS011;5972;42.134;24.718;2023-01-16T10:11:57;27.87;;;16.70;;
11829;SDS011;5972;42.134;24.718;2023-01-16T10:14:36;24.37;;;16.97;;
11829;SDS011;5972;42.134;24.718;2023-01-16T10:17:18;29.20;;;17.63;;
11829;SDS011;5972;42.134;24.718;2023-01-16T10:19:57;26.97;;;18.10;;
11829;SDS011;5972;42.134;24.718;2023-01-16T10:22:42;27.97;;;18.40;;
11829;SDS011;5972;42.134;24.718;2023-01-16T10:25:18;29.23;;;19.03;;
11829;SDS011;5972;42.134;24.718;2023-01-16T10:27:51;29.80;;;18.13;;
11829;SDS011;5972;42.134;24.718;2023-01-16T10:30:30;31.30;;;18.17;;
11829;SDS011;5972;42.134;24.718;2023-01-16T10:33:03;33.47;;;18.83;;
11829;SDS011;5972;42.134;24.718;2023-01-16T10:35:37;28.50;;;18.17;;
11829;SDS011;5972;42.134;24.718;2023-01-16T10:38:14;29.53;;;19.37;;
11829;SDS011;5972;42.134;24.718;2023-01-16T10:40:50;30.37;;;20.03;;
11829;SDS011;5972;42.134;24.718;2023-01-16T10:43:19;34.63;;;21.00;;
11829;SDS011;5972;42.134;24.718;2023-01-16T10:46:15;30.33;;;19.90;;
11829;SDS011;5972;42.134;24.718;2023-01-16T10:49:02;33.07;;;20.00;;
11829;SDS011;5972;42.134;24.718;2023-01-16T10:51:46;28.03;;;19.93;;
11829;SDS011;5972;42.134;24.718;2023-01-16T10:54:13;30.90;;;20.63;;
11829;SDS011;5972;42.134;24.718;2023-01-16T10:56:42;30.73;;;19.10;;
11829;SDS011;5972;42.134;24.718;2023-01-16T10:59:09;29.17;;;19.70;;
11829;SDS011;5972;42.134;24.718;2023-01-16T11:01:39;28.83;;;18.57;;
11829;SDS011;5972;42.134;24.718;2023-01-16T11:04:10;25.47;;;17.10;;
11829;SDS011;5972;42.134;24.718;2023-01-16T11:06:40;24.83;;;17.70;;
11829;SDS011;5972;42.134;24.718;2023-01-16T11:09:15;26.47;;;16.00;;
11829;SDS011;5972;42.134;24.718;2023-01-16T11:11:45;21.43;;;13.20;;
11829;SDS011;5972;42.134;24.718;2023-01-16T11:14:33;23.10;;;15.83;;
11829;SDS011;5972;42.134;24.718;2023-01-16T11:17:25;17.17;;;13.23;;
11829;SDS011;5972;42.134;24.718;2023-01-16T11:20:12;26.27;;;15.67;;
11829;SDS011;5972;42.134;24.718;2023-01-16T11:22:42;19.93;;;14.20;;
11829;SDS011;5972;42.134;24.718;2023-01-16T11:25:14;19.70;;;14.07;;
11829;SDS011;5972;42.134;24.718;2023-01-16T11:27:45;23.07;;;14.10;;
11829;SDS011;5972;42.134;24.718;2023-01-16T11:30:16;21.40;;;15.20;;
11829;SDS011;5972;42.134;24.718;2023-01-16T11:32:49;19.93;;;13.57;;
11829;SDS011;5972;42.134;24.718;2023-01-16T11:35:19;17.77;;;13.00;;
11829;SDS011;5972;42.134;24.718;2023-01-16T11:37:51;21.80;;;13.73;;
11829;SDS011;5972;42.134;24.718;2023-01-16T11:40:23;20.17;;;14.57;;
11829;SDS011;5972;42.134;24.718;2023-01-16T11:42:52;44.83;;;23.97;;
11829;SDS011;5972;42.134;24.718;2023-01-16T11:45:45;24.33;;;15.97;;
11829;SDS011;5972;42.134;24.718;2023-01-16T11:48:37;33.20;;;19.67;;
11829;SDS011;5972;42.134;24.718;2023-01-16T11:51:12;30.27;;;17.57;;
11829;SDS011;5972;42.134;24.718;2023-01-16T11:53:41;28.40;;;17.50;;
11829;SDS011;5972;42.134;24.718;2023-01-16T11:59:11;23.10;;;16.53;;
11829;SDS011;5972;42.134;24.718;2023-01-16T12:01:55;21.57;;;16.07;;
11829;SDS011;5972;42.134;24.718;2023-01-16T12:04:45;25.37;;;16.10;;
11829;SDS011;5972;42.134;24.718;2023-01-16T12:07:41;21.37;;;14.53;;
11829;SDS011;5972;42.134;24.718;2023-01-16T12:10:21;25.33;;;16.00;;
11829;SDS011;5972;42.134;24.718;2023-01-16T12:12:59;23.07;;;15.30;;
11829;SDS011;5972;42.134;24.718;2023-01-16T12:15:47;24.87;;;16.30;;
11829;SDS011;5972;42.134;24.718;2023-01-16T12:18:29;23.97;;;14.77;;
11829;SDS011;5972;42.134;24.718;2023-01-16T12:21:03;26.67;;;17.87;;
11829;SDS011;5972;42.134;24.718;2023-01-16T12:23:42;24.73;;;17.13;;
11829;SDS011;5972;42.134;24.718;2023-01-16T12:26:19;29.33;;;18.30;;
11829;SDS011;5972;42.134;24.718;2023-01-16T12:28:53;25.57;;;16.27;;
11829;SDS011;5972;42.134;24.718;2023-01-16T12:31:46;25.13;;;16.73;;
11829;SDS011;5972;42.134;24.718;2023-01-16T12:34:25;23.07;;;14.87;;
11829;SDS011;5972;42.134;24.718;2023-01-16T12:37:15;27.60;;;17.07;;
11829;SDS011;5972;42.134;24.718;2023-01-16T12:39:53;24.27;;;16.43;;
11829;SDS011;5972;42.134;24.718;2023-01-16T12:42:28;27.23;;;15.77;;
11829;SDS011;5972;42.134;24.718;2023-01-16T12:45:27;19.20;;;14.47;;
11829;SDS011;5972;42.134;24.718;2023-01-16T12:48:10;20.70;;;14.60;;
11829;SDS011;5972;42.134;24.718;2023-01-16T12:50:51;25.77;;;16.57;;
11829;SDS011;5972;42.134;24.718;2023-01-16T12:53:35;24.10;;;16.80;;
11829;SDS011;5972;42.134;24.718;2023-01-16T12:56:19;23.93;;;16.30;;
11829;SDS011;5972;42.134;24.718;2023-01-16T12:59:00;26.33;;;15.73;;
11829;SDS011;5972;42.134;24.718;2023-01-16T13:01:33;24.53;;;16.83;;
11829;SDS011;5972;42.134;24.718;2023-01-16T13:04:06;22.83;;;15.73;;
11829;SDS011;5972;42.134;24.718;2023-01-16T13:06:41;24.27;;;16.23;;
11829;SDS011;5972;42.134;24.718;2023-01-16T13:09:17;24.63;;;15.97;;
11829;SDS011;5972;42.134;24.718;2023-01-16T13:12:00;26.63;;;17.38;;
11829;SDS011;5972;42.134;24.718;2023-01-16T13:14:50;24.40;;;16.63;;
11829;SDS011;5972;42.134;24.718;2023-01-16T13:17:21;24.63;;;16.10;;
11829;SDS011;5972;42.134;24.718;2023-01-16T13:19:52;28.53;;;18.10;;
11829;SDS011;5972;42.134;24.718;2023-01-16T13:22:21;28.20;;;18.75;;
11829;SDS011;5972;42.134;24.718;2023-01-16T13:24:55;30.27;;;18.52;;
11829;SDS011;5972;42.134;24.718;2023-01-16T13:27:31;26.55;;;18.90;;
11829;SDS011;5972;42.134;24.718;2023-01-16T13:30:08;29.50;;;18.92;;
11829;SDS011;5972;42.134;24.718;2023-01-16T13:32:40;34.67;;;18.93;;
11829;SDS011;5972;42.134;24.718;2023-01-16T13:35:13;27.80;;;19.30;;
11829;SDS011;5972;42.134;24.718;2023-01-16T13:41:08;32.27;;;21.67;;
11829;SDS011;5972;42.134;24.718;2023-01-16T13:43:42;42.50;;;23.97;;
11829;SDS011;5972;42.134;24.718;2023-01-16T13:46:29;32.10;;;21.87;;
11829;SDS011;5972;42.134;24.718;2023-01-16T13:48:59;32.27;;;19.83;;
11829;SDS011;5972;42.134;24.718;2023-01-16T13:51:27;29.90;;;20.77;;
11829;SDS011;5972;42.134;24.718;2023-01-16T13:53:55;32.77;;;21.30;;
11829;SDS011;5972;42.134;24.718;2023-01-16T13:56:26;37.13;;;20.77;;
11829;SDS011;5972;42.134;24.718;2023-01-16T13:58:55;38.40;;;20.30;;
11829;SDS011;5972;42.134;24.718;2023-01-16T14:01:28;32.33;;;19.83;;
11829;SDS011;5972;42.134;24.718;2023-01-16T14:04:10;35.13;;;21.23;;
11829;SDS011;5972;42.134;24.718;2023-01-16T14:06:51;39.57;;;22.17;;
11829;SDS011;5972;42.134;24.718;2023-01-16T14:12:44;31.80;;;19.73;;
11829;SDS011;5972;42.134;24.718;2023-01-16T14:18:36;36.27;;;20.03;;
11829;SDS011;5972;42.134;24.718;2023-01-16T14:21:04;35.83;;;21.97;;
11829;SDS011;5972;42.134;24.718;2023-01-16T14:23:39;36.50;;;23.20;;
11829;SDS011;5972;42.134;24.718;2023-01-16T14:26:35;35.93;;;21.47;;
11829;SDS011;5972;42.134;24.718;2023-01-16T14:29:13;34.77;;;21.87;;
11829;SDS011;5972;42.134;24.718;2023-01-16T14:31:52;33.03;;;21.00;;
11829;SDS011;5972;42.134;24.718;2023-01-16T14:34:21;35.77;;;22.00;;
11829;SDS011;5972;42.134;24.718;2023-01-16T14:36:52;33.50;;;22.47;;
11829;SDS011;5972;42.134;24.718;2023-01-16T14:39:28;32.63;;;20.43;;
11829;SDS011;5972;42.134;24.718;2023-01-16T14:42:01;33.13;;;20.10;;
11829;SDS011;5972;42.134;24.718;2023-01-16T14:48:14;37.40;;;22.53;;
11829;SDS011;5972;42.134;24.718;2023-01-16T14:51:14;30.03;;;20.70;;
11829;SDS011;5972;42.134;24.718;2023-01-16T14:54:03;34.90;;;19.63;;
11829;SDS011;5972;42.134;24.718;2023-01-16T14:56:52;36.50;;;21.90;;
11829;SDS011;5972;42.134;24.718;2023-01-16T14:59:25;32.60;;;20.63;;
11829;SDS011;5972;42.134;24.718;2023-01-16T15:01:57;35.60;;;24.07;;
11829;SDS011;5972;42.134;24.718;2023-01-16T15:04:50;41.30;;;27.83;;
11829;SDS011;5972;42.134;24.718;2023-01-16T15:07:22;42.87;;;25.13;;
11829;SDS011;5972;42.134;24.718;2023-01-16T15:09:55;37.50;;;23.20;;
11829;SDS011;5972;42.134;24.718;2023-01-16T15:12:34;33.20;;;23.77;;
11829;SDS011;5972;42.134;24.718;2023-01-16T15:15:03;30.70;;;21.10;;
11829;SDS011;5972;42.134;24.718;2023-01-16T15:17:32;40.03;;;21.27;;
11829;SDS011;5972;42.134;24.718;2023-01-16T15:20:21;48.50;;;25.27;;
11829;SDS011;5972;42.134;24.718;2023-01-16T15:23:19;50.13;;;30.60;;